sensor_id;sensor_type;location;lat;lon;timestamp;temperature;humidity
3350;DHT22;1688;51.000;13.684;2022-09-01T00:01:22;16.40;99.90
3350;DHT22;1688;51.000;13.684;2022-09-01T00:03:53;16.40;99.90
3350;DHT22;1688;51.000;13.684;2022-09-01T00:06:23;16.40;99.90
3350;DHT22;1688;51.000;13.684;2022-09-01T00:08:50;16.40;99.90
3350;DHT22;1688;51.000;13.684;2022-09-01T00:11:16;16.30;99.90
3350;DHT22;1688;51.000;13.684;2022-09-01T00:13:42;16.30;99.90
3350;DHT22;1688;51.000;13.684;2022-09-01T00:16:08;16.30;99.90
3350;DHT22;1688;51.000;13.684;2022-09-01T00:18:34;16.30;99.90
3350;DHT22;1688;51.000;13.684;2022-09-01T00:21:01;16.20;99.90
3350;DHT22;1688;51.000;13.684;2022-09-01T00:23:27;16.30;99.90
3350;DHT22;1688;51.000;13.684;2022-09-01T00:25:54;16.30;99.90
3350;DHT22;1688;51.000;13.684;2022-09-01T00:28:20;16.30;99.90
3350;DHT22;1688;51.000;13.684;2022-09-01T00:30:46;16.20;99.90
3350;DHT22;1688;51.000;13.684;2022-09-01T00:33:12;16.20;99.90
3350;DHT22;1688;51.000;13.684;2022-09-01T00:35:38;16.20;99.90
3350;DHT22;1688;51.000;13.684;2022-09-01T00:38:03;16.20;99.90
3350;DHT22;1688;51.000;13.684;2022-09-01T00:40:30;16.20;99.90
3350;DHT22;1688;51.000;13.684;2022-09-01T00:42:56;16.20;99.90
3350;DHT22;1688;51.000;13.684;2022-09-01T00:45:22;16.20;99.90
3350;DHT22;1688;51.000;13.684;2022-09-01T00:47:48;16.10;99.90
3350;DHT22;1688;51.000;13.684;2022-09-01T00:50:16;16.20;99.90
3350;DHT22;1688;51.000;13.684;2022-09-01T00:52:47;16.10;99.90
3350;DHT22;1688;51.000;13.684;2022-09-01T00:55:18;16.20;99.90
3350;DHT22;1688;51.000;13.684;2022-09-01T00:57:46;16.20;99.90
3350;DHT22;1688;51.000;13.684;2022-09-01T01:00:19;16.20;99.90
3350;DHT22;1688;51.000;13.684;2022-09-01T01:02:47;16.20;99.90
3350;DHT22;1688;51.000;13.684;2022-09-01T01:05:26;16.20;99.90
3350;DHT22;1688;51.000;13.684;2022-09-01T01:07:55;16.30;99.90
3350;DHT22;1688;51.000;13.684;2022-09-01T01:10:22;16.30;99.90
3350;DHT22;1688;51.000;13.684;2022-09-01T01:12:50;16.30;99.90
3350;DHT22;1688;51.000;13.684;2022-09-01T01:15:17;16.30;99.90
3350;DHT22;1688;51.000;13.684;2022-09-01T01:17:43;16.40;99.90
3350;DHT22;1688;51.000;13.684;2022-09-01T01:20:11;16.30;99.90
3350;DHT22;1688;51.000;13.684;2022-09-01T01:23:19;16.30;99.90
3350;DHT22;1688;51.000;13.684;2022-09-01T01:25:50;16.30;99.90
3350;DHT22;1688;51.000;13.684;2022-09-01T01:28:25;16.20;99.90
3350;DHT22;1688;51.000;13.684;2022-09-01T01:30:57;16.20;99.90
3350;DHT22;1688;51.000;13.684;2022-09-01T01:33:35;16.20;99.90
3350;DHT22;1688;51.000;13.684;2022-09-01T01:36:05;16.20;99.90
3350;DHT22;1688;51.000;13.684;2022-09-01T01:38:32;16.30;99.90
3350;DHT22;1688;51.000;13.684;2022-09-01T01:41:01;16.20;99.90
3350;DHT22;1688;51.000;13.684;2022-09-01T01:43:27;16.20;99.90
3350;DHT22;1688;51.000;13.684;2022-09-01T01:45:55;16.20;99.90
3350;DHT22;1688;51.000;13.684;2022-09-01T01:48:24;16.20;99.90
3350;DHT22;1688;51.000;13.684;2022-09-01T01:50:52;16.20;99.90
3350;DHT22;1688;51.000;13.684;2022-09-01T01:53:19;16.20;99.90
3350;DHT22;1688;51.000;13.684;2022-09-01T01:55:46;16.20;99.90
3350;DHT22;1688;51.000;13.684;2022-09-01T01:58:17;16.20;99.90
3350;DHT22;1688;51.000;13.684;2022-09-01T02:00:46;16.20;99.90
3350;DHT22;1688;51.000;13.684;2022-09-01T02:03:14;16.30;99.90
3350;DHT22;1688;51.000;13.684;2022-09-01T02:05:45;16.30;99.90
3350;DHT22;1688;51.000;13.684;2022-09-01T02:08:12;16.30;99.90
3350;DHT22;1688;51.000;13.684;2022-09-01T02:10:42;16.30;99.90
3350;DHT22;1688;51.000;13.684;2022-09-01T02:13:11;16.30;99.90
3350;DHT22;1688;51.000;13.684;2022-09-01T02:15:44;16.30;99.90
3350;DHT22;1688;51.000;13.684;2022-09-01T02:18:18;16.30;99.90
3350;DHT22;1688;51.000;13.684;2022-09-01T02:20:49;16.30;99.90
3350;DHT22;1688;51.000;13.684;2022-09-01T02:23:16;16.30;99.90
3350;DHT22;1688;51.000;13.684;2022-09-01T02:25:53;16.30;99.90
3350;DHT22;1688;51.000;13.684;2022-09-01T02:28:21;16.30;99.90
3350;DHT22;1688;51.000;13.684;2022-09-01T02:30:49;16.30;99.90
3350;DHT22;1688;51.000;13.684;2022-09-01T02:33:23;16.30;99.90
3350;DHT22;1688;51.000;13.684;2022-09-01T02:35:59;16.30;99.90
3350;DHT22;1688;51.000;13.684;2022-09-01T02:38:26;16.30;99.90
3350;DHT22;1688;51.000;13.684;2022-09-01T02:40:56;16.30;99.90
3350;DHT22;1688;51.000;13.684;2022-09-01T02:43:24;16.30;99.90
3350;DHT22;1688;51.000;13.684;2022-09-01T02:45:58;16.20;99.90
3350;DHT22;1688;51.000;13.684;2022-09-01T02:48:31;16.20;99.90
3350;DHT22;1688;51.000;13.684;2022-09-01T02:51:02;16.20;99.90
3350;DHT22;1688;51.000;13.684;2022-09-01T02:53:29;16.20;99.90
3350;DHT22;1688;51.000;13.684;2022-09-01T02:55:56;16.10;99.90
3350;DHT22;1688;51.000;13.684;2022-09-01T02:58:29;16.10;99.90
3350;DHT22;1688;51.000;13.684;2022-09-01T03:01:00;16.10;99.90
3350;DHT22;1688;51.000;13.684;2022-09-01T03:03:25;16.10;99.90
3350;DHT22;1688;51.000;13.684;2022-09-01T03:05:53;16.10;99.90
3350;DHT22;1688;51.000;13.684;2022-09-01T03:08:25;16.00;99.90
3350;DHT22;1688;51.000;13.684;2022-09-01T03:10:52;16.00;99.90
3350;DHT22;1688;51.000;13.684;2022-09-01T03:13:22;16.00;99.90
3350;DHT22;1688;51.000;13.684;2022-09-01T03:15:49;16.00;99.90
3350;DHT22;1688;51.000;13.684;2022-09-01T03:18:15;16.00;99.90
3350;DHT22;1688;51.000;13.684;2022-09-01T03:20:44;16.00;99.90
3350;DHT22;1688;51.000;13.684;2022-09-01T03:23:13;16.00;99.90
3350;DHT22;1688;51.000;13.684;2022-09-01T03:25:44;16.00;99.90
3350;DHT22;1688;51.000;13.684;2022-09-01T03:28:11;15.90;99.90
3350;DHT22;1688;51.000;13.684;2022-09-01T03:30:39;16.00;99.90
3350;DHT22;1688;51.000;13.684;2022-09-01T03:33:09;15.90;99.90
3350;DHT22;1688;51.000;13.684;2022-09-01T03:35:35;16.00;99.90
3350;DHT22;1688;51.000;13.684;2022-09-01T03:38:02;15.90;99.90
3350;DHT22;1688;51.000;13.684;2022-09-01T03:40:33;15.90;99.90
3350;DHT22;1688;51.000;13.684;2022-09-01T03:43:03;15.80;99.90
3350;DHT22;1688;51.000;13.684;2022-09-01T03:45:30;15.70;99.90
3350;DHT22;1688;51.000;13.684;2022-09-01T03:47:59;15.70;99.90
3350;DHT22;1688;51.000;13.684;2022-09-01T03:50:26;15.70;99.90
3350;DHT22;1688;51.000;13.684;2022-09-01T03:52:56;15.70;99.90
3350;DHT22;1688;51.000;13.684;2022-09-01T03:55:26;15.60;99.90
3350;DHT22;1688;51.000;13.684;2022-09-01T03:57:55;15.70;99.90
3350;DHT22;1688;51.000;13.684;2022-09-01T04:00:23;15.60;99.90
3350;DHT22;1688;51.000;13.684;2022-09-01T04:02:51;15.70;99.90
3350;DHT22;1688;51.000;13.684;2022-09-01T04:05:22;15.70;99.90
3350;DHT22;1688;51.000;13.684;2022-09-01T04:07:50;15.70;99.90
3350;DHT22;1688;51.000;13.684;2022-09-01T04:10:17;15.70;99.90
3350;DHT22;1688;51.000;13.684;2022-09-01T04:12:43;15.70;99.90
3350;DHT22;1688;51.000;13.684;2022-09-01T04:15:12;15.70;99.90
3350;DHT22;1688;51.000;13.684;2022-09-01T04:17:38;15.70;99.90
3350;DHT22;1688;51.000;13.684;2022-09-01T04:20:23;15.70;99.90
3350;DHT22;1688;51.000;13.684;2022-09-01T04:22:50;15.70;99.90
3350;DHT22;1688;51.000;13.684;2022-09-01T04:25:18;15.70;99.90
3350;DHT22;1688;51.000;13.684;2022-09-01T04:27:52;15.80;99.90
3350;DHT22;1688;51.000;13.684;2022-09-01T04:30:22;15.80;99.90
3350;DHT22;1688;51.000;13.684;2022-09-01T04:32:51;15.80;99.90
3350;DHT22;1688;51.000;13.684;2022-09-01T04:35:21;15.80;99.90
3350;DHT22;1688;51.000;13.684;2022-09-01T04:37:58;15.80;99.90
3350;DHT22;1688;51.000;13.684;2022-09-01T04:40:24;15.80;99.90
3350;DHT22;1688;51.000;13.684;2022-09-01T04:42:51;15.80;99.90
3350;DHT22;1688;51.000;13.684;2022-09-01T04:45:17;15.80;99.90
3350;DHT22;1688;51.000;13.684;2022-09-01T04:47:47;15.90;99.90
3350;DHT22;1688;51.000;13.684;2022-09-01T04:50:13;15.90;99.90
3350;DHT22;1688;51.000;13.684;2022-09-01T04:52:42;15.90;99.90
3350;DHT22;1688;51.000;13.684;2022-09-01T04:55:10;15.90;99.90
3350;DHT22;1688;51.000;13.684;2022-09-01T04:57:46;16.00;99.90
3350;DHT22;1688;51.000;13.684;2022-09-01T05:00:15;16.00;99.90
3350;DHT22;1688;51.000;13.684;2022-09-01T05:02:52;16.10;99.90
3350;DHT22;1688;51.000;13.684;2022-09-01T05:05:20;16.10;99.90
3350;DHT22;1688;51.000;13.684;2022-09-01T05:07:46;16.10;99.90
3350;DHT22;1688;51.000;13.684;2022-09-01T05:10:15;16.20;99.90
3350;DHT22;1688;51.000;13.684;2022-09-01T05:12:43;16.20;99.90
3350;DHT22;1688;51.000;13.684;2022-09-01T05:15:12;16.20;99.90
3350;DHT22;1688;51.000;13.684;2022-09-01T05:17:39;16.20;99.90
3350;DHT22;1688;51.000;13.684;2022-09-01T05:20:06;16.20;99.90
3350;DHT22;1688;51.000;13.684;2022-09-01T05:22:33;16.20;99.90
3350;DHT22;1688;51.000;13.684;2022-09-01T05:25:00;16.20;99.90
3350;DHT22;1688;51.000;13.684;2022-09-01T05:27:43;16.30;99.90
3350;DHT22;1688;51.000;13.684;2022-09-01T05:30:15;16.30;99.90
3350;DHT22;1688;51.000;13.684;2022-09-01T05:32:42;16.30;99.90
3350;DHT22;1688;51.000;13.684;2022-09-01T05:35:09;16.30;99.90
3350;DHT22;1688;51.000;13.684;2022-09-01T05:37:37;16.40;99.90
3350;DHT22;1688;51.000;13.684;2022-09-01T05:40:09;16.30;99.90
3350;DHT22;1688;51.000;13.684;2022-09-01T05:42:43;16.30;99.90
3350;DHT22;1688;51.000;13.684;2022-09-01T05:45:09;16.30;99.90
3350;DHT22;1688;51.000;13.684;2022-09-01T05:47:39;16.40;99.90
3350;DHT22;1688;51.000;13.684;2022-09-01T05:50:09;16.40;99.90
3350;DHT22;1688;51.000;13.684;2022-09-01T05:52:37;16.30;99.90
3350;DHT22;1688;51.000;13.684;2022-09-01T05:55:04;16.40;99.90
3350;DHT22;1688;51.000;13.684;2022-09-01T05:57:34;16.40;99.90
3350;DHT22;1688;51.000;13.684;2022-09-01T06:00:06;16.50;99.90
3350;DHT22;1688;51.000;13.684;2022-09-01T06:02:37;16.40;99.90
3350;DHT22;1688;51.000;13.684;2022-09-01T06:05:07;16.50;99.90
3350;DHT22;1688;51.000;13.684;2022-09-01T06:07:33;16.50;99.90
3350;DHT22;1688;51.000;13.684;2022-09-01T06:10:03;16.50;99.90
3350;DHT22;1688;51.000;13.684;2022-09-01T06:12:28;16.50;99.90
3350;DHT22;1688;51.000;13.684;2022-09-01T06:14:55;16.50;99.90
3350;DHT22;1688;51.000;13.684;2022-09-01T06:17:23;16.60;99.90
3350;DHT22;1688;51.000;13.684;2022-09-01T06:19:53;16.60;99.90
3350;DHT22;1688;51.000;13.684;2022-09-01T06:22:23;16.70;99.90
3350;DHT22;1688;51.000;13.684;2022-09-01T06:24:50;16.70;99.90
3350;DHT22;1688;51.000;13.684;2022-09-01T06:27:20;16.80;99.90
3350;DHT22;1688;51.000;13.684;2022-09-01T06:29:46;17.00;99.90
3350;DHT22;1688;51.000;13.684;2022-09-01T06:32:16;17.10;99.90
3350;DHT22;1688;51.000;13.684;2022-09-01T06:34:42;17.10;99.90
3350;DHT22;1688;51.000;13.684;2022-09-01T06:37:14;17.20;99.90
3350;DHT22;1688;51.000;13.684;2022-09-01T06:39:40;17.40;99.90
3350;DHT22;1688;51.000;13.684;2022-09-01T06:42:07;17.20;99.90
3350;DHT22;1688;51.000;13.684;2022-09-01T06:44:35;17.20;99.90
3350;DHT22;1688;51.000;13.684;2022-09-01T06:47:01;17.20;99.90
3350;DHT22;1688;51.000;13.684;2022-09-01T06:49:27;17.20;99.90
3350;DHT22;1688;51.000;13.684;2022-09-01T06:52:00;17.50;99.90
3350;DHT22;1688;51.000;13.684;2022-09-01T06:54:28;18.00;99.90
3350;DHT22;1688;51.000;13.684;2022-09-01T06:56:55;18.20;99.90
3350;DHT22;1688;51.000;13.684;2022-09-01T06:59:22;18.70;99.90
3350;DHT22;1688;51.000;13.684;2022-09-01T07:01:48;20.30;99.90
3350;DHT22;1688;51.000;13.684;2022-09-01T07:04:16;21.60;99.90
3350;DHT22;1688;51.000;13.684;2022-09-01T07:06:44;22.80;99.90
3350;DHT22;1688;51.000;13.684;2022-09-01T07:09:10;23.20;99.90
3350;DHT22;1688;51.000;13.684;2022-09-01T07:11:37;23.20;99.90
3350;DHT22;1688;51.000;13.684;2022-09-01T07:14:05;22.80;99.90
3350;DHT22;1688;51.000;13.684;2022-09-01T07:16:35;22.40;99.90
3350;DHT22;1688;51.000;13.684;2022-09-01T07:19:05;21.90;99.90
3350;DHT22;1688;51.000;13.684;2022-09-01T07:21:33;21.60;99.90
3350;DHT22;1688;51.000;13.684;2022-09-01T07:23:59;21.20;99.90
3350;DHT22;1688;51.000;13.684;2022-09-01T07:26:27;20.40;99.90
3350;DHT22;1688;51.000;13.684;2022-09-01T07:28:53;19.50;99.90
3350;DHT22;1688;51.000;13.684;2022-09-01T07:31:28;18.80;99.90
3350;DHT22;1688;51.000;13.684;2022-09-01T07:33:58;18.40;99.90
3350;DHT22;1688;51.000;13.684;2022-09-01T07:36:24;18.60;99.90
3350;DHT22;1688;51.000;13.684;2022-09-01T07:38:50;18.80;99.90
3350;DHT22;1688;51.000;13.684;2022-09-01T07:41:21;19.10;99.90
3350;DHT22;1688;51.000;13.684;2022-09-01T07:43:47;19.20;99.90
3350;DHT22;1688;51.000;13.684;2022-09-01T07:46:19;19.30;99.90
3350;DHT22;1688;51.000;13.684;2022-09-01T07:48:45;19.40;99.90
3350;DHT22;1688;51.000;13.684;2022-09-01T07:51:13;19.60;99.90
3350;DHT22;1688;51.000;13.684;2022-09-01T07:53:44;19.60;99.90
3350;DHT22;1688;51.000;13.684;2022-09-01T07:56:13;19.50;99.90
3350;DHT22;1688;51.000;13.684;2022-09-01T07:58:40;19.50;99.90
3350;DHT22;1688;51.000;13.684;2022-09-01T08:01:10;19.40;99.90
3350;DHT22;1688;51.000;13.684;2022-09-01T08:03:38;19.40;99.90
3350;DHT22;1688;51.000;13.684;2022-09-01T08:06:07;19.40;99.90
3350;DHT22;1688;51.000;13.684;2022-09-01T08:08:34;19.40;99.90
3350;DHT22;1688;51.000;13.684;2022-09-01T08:11:00;19.40;99.90
3350;DHT22;1688;51.000;13.684;2022-09-01T08:13:27;19.50;99.90
3350;DHT22;1688;51.000;13.684;2022-09-01T08:15:53;19.60;99.90
3350;DHT22;1688;51.000;13.684;2022-09-01T08:18:19;19.50;99.90
3350;DHT22;1688;51.000;13.684;2022-09-01T08:20:45;19.70;99.90
3350;DHT22;1688;51.000;13.684;2022-09-01T08:23:17;19.80;99.90
3350;DHT22;1688;51.000;13.684;2022-09-01T08:25:45;20.00;99.90
3350;DHT22;1688;51.000;13.684;2022-09-01T08:28:12;20.20;99.90
3350;DHT22;1688;51.000;13.684;2022-09-01T08:30:41;20.20;99.90
3350;DHT22;1688;51.000;13.684;2022-09-01T08:33:07;20.50;99.90
3350;DHT22;1688;51.000;13.684;2022-09-01T08:35:38;20.90;99.90
3350;DHT22;1688;51.000;13.684;2022-09-01T08:38:04;21.10;99.90
3350;DHT22;1688;51.000;13.684;2022-09-01T08:40:30;20.80;99.90
3350;DHT22;1688;51.000;13.684;2022-09-01T08:45:47;19.80;99.90
3350;DHT22;1688;51.000;13.684;2022-09-01T08:48:19;19.50;99.90
3350;DHT22;1688;51.000;13.684;2022-09-01T08:51:06;19.50;99.90
3350;DHT22;1688;51.000;13.684;2022-09-01T08:53:57;19.60;99.90
3350;DHT22;1688;51.000;13.684;2022-09-01T08:56:24;19.60;99.90
3350;DHT22;1688;51.000;13.684;2022-09-01T08:58:52;19.50;99.90
3350;DHT22;1688;51.000;13.684;2022-09-01T09:01:44;19.60;99.90
3350;DHT22;1688;51.000;13.684;2022-09-01T09:07:13;19.80;99.90
3350;DHT22;1688;51.000;13.684;2022-09-01T09:09:49;19.60;99.90
3350;DHT22;1688;51.000;13.684;2022-09-01T09:12:34;19.20;99.90
3350;DHT22;1688;51.000;13.684;2022-09-01T09:17:58;19.30;99.90
3350;DHT22;1688;51.000;13.684;2022-09-01T09:20:27;19.10;99.90
3350;DHT22;1688;51.000;13.684;2022-09-01T09:22:53;19.20;99.90
3350;DHT22;1688;51.000;13.684;2022-09-01T09:25:20;19.30;99.90
3350;DHT22;1688;51.000;13.684;2022-09-01T09:27:47;19.30;99.90
3350;DHT22;1688;51.000;13.684;2022-09-01T09:30:22;19.30;99.90
3350;DHT22;1688;51.000;13.684;2022-09-01T09:32:59;19.30;99.90
3350;DHT22;1688;51.000;13.684;2022-09-01T09:35:37;19.00;99.90
3350;DHT22;1688;51.000;13.684;2022-09-01T09:38:15;19.20;99.90
3350;DHT22;1688;51.000;13.684;2022-09-01T09:41:18;19.50;99.90
3350;DHT22;1688;51.000;13.684;2022-09-01T09:43:58;19.80;99.90
3350;DHT22;1688;51.000;13.684;2022-09-01T09:51:35;19.90;99.90
3350;DHT22;1688;51.000;13.684;2022-09-01T09:54:17;20.10;99.90
3350;DHT22;1688;51.000;13.684;2022-09-01T09:56:43;20.30;99.90
3350;DHT22;1688;51.000;13.684;2022-09-01T09:59:18;20.50;99.90
3350;DHT22;1688;51.000;13.684;2022-09-01T10:01:45;20.80;99.90
3350;DHT22;1688;51.000;13.684;2022-09-01T10:04:34;20.60;99.90
3350;DHT22;1688;51.000;13.684;2022-09-01T10:07:04;20.40;99.90
3350;DHT22;1688;51.000;13.684;2022-09-01T10:09:46;20.30;99.90
3350;DHT22;1688;51.000;13.684;2022-09-01T10:12:14;20.20;99.90
3350;DHT22;1688;51.000;13.684;2022-09-01T10:14:44;20.10;99.90
3350;DHT22;1688;51.000;13.684;2022-09-01T10:17:14;20.40;99.90
3350;DHT22;1688;51.000;13.684;2022-09-01T10:19:54;20.50;99.90
3350;DHT22;1688;51.000;13.684;2022-09-01T10:22:21;20.30;99.90
3350;DHT22;1688;51.000;13.684;2022-09-01T10:24:48;20.60;99.90
3350;DHT22;1688;51.000;13.684;2022-09-01T10:27:24;20.90;99.90
3350;DHT22;1688;51.000;13.684;2022-09-01T10:30:07;21.00;99.90
3350;DHT22;1688;51.000;13.684;2022-09-01T10:32:39;20.80;99.90
3350;DHT22;1688;51.000;13.684;2022-09-01T10:35:13;20.90;99.90
3350;DHT22;1688;51.000;13.684;2022-09-01T10:37:41;20.80;99.90
3350;DHT22;1688;51.000;13.684;2022-09-01T10:42:55;20.80;99.90
3350;DHT22;1688;51.000;13.684;2022-09-01T10:45:35;20.90;99.90
3350;DHT22;1688;51.000;13.684;2022-09-01T10:50:51;20.40;99.90
3350;DHT22;1688;51.000;13.684;2022-09-01T11:04:23;21.70;99.90
3350;DHT22;1688;51.000;13.684;2022-09-01T11:17:59;22.10;98.30
3350;DHT22;1688;51.000;13.684;2022-09-01T11:20:31;21.90;99.10
3350;DHT22;1688;51.000;13.684;2022-09-01T11:23:12;22.10;99.20
3350;DHT22;1688;51.000;13.684;2022-09-01T11:25:52;22.20;99.10
3350;DHT22;1688;51.000;13.684;2022-09-01T11:31:40;22.40;96.40
3350;DHT22;1688;51.000;13.684;2022-09-01T11:44:25;23.40;96.90
3350;DHT22;1688;51.000;13.684;2022-09-01T11:47:06;23.60;92.80
3350;DHT22;1688;51.000;13.684;2022-09-01T11:49:37;23.30;94.10
3350;DHT22;1688;51.000;13.684;2022-09-01T11:52:04;23.30;93.90
3350;DHT22;1688;51.000;13.684;2022-09-01T11:54:41;23.10;93.40
3350;DHT22;1688;51.000;13.684;2022-09-01T11:57:23;23.00;93.10
3350;DHT22;1688;51.000;13.684;2022-09-01T11:59:50;22.60;93.20
3350;DHT22;1688;51.000;13.684;2022-09-01T12:02:23;22.20;90.40
3350;DHT22;1688;51.000;13.684;2022-09-01T12:04:52;21.80;90.80
3350;DHT22;1688;51.000;13.684;2022-09-01T12:10:32;21.40;94.70
3350;DHT22;1688;51.000;13.684;2022-09-01T12:13:19;21.30;94.80
3350;DHT22;1688;51.000;13.684;2022-09-01T12:16:19;21.10;95.30
3350;DHT22;1688;51.000;13.684;2022-09-01T12:18:47;20.80;97.00
3350;DHT22;1688;51.000;13.684;2022-09-01T12:21:36;20.90;97.70
3350;DHT22;1688;51.000;13.684;2022-09-01T12:24:16;20.70;97.90
3350;DHT22;1688;51.000;13.684;2022-09-01T12:26:48;20.60;98.30
3350;DHT22;1688;51.000;13.684;2022-09-01T12:29:15;20.40;98.80
3350;DHT22;1688;51.000;13.684;2022-09-01T12:31:43;20.30;99.20
3350;DHT22;1688;51.000;13.684;2022-09-01T12:34:46;20.30;99.30
3350;DHT22;1688;51.000;13.684;2022-09-01T12:37:22;20.30;99.70
3350;DHT22;1688;51.000;13.684;2022-09-01T12:39:53;20.10;99.90
3350;DHT22;1688;51.000;13.684;2022-09-01T12:42:29;20.10;99.90
3350;DHT22;1688;51.000;13.684;2022-09-01T12:45:04;20.10;99.90
3350;DHT22;1688;51.000;13.684;2022-09-01T12:52:45;20.30;99.70
3350;DHT22;1688;51.000;13.684;2022-09-01T12:55:15;20.40;99.50
3350;DHT22;1688;51.000;13.684;2022-09-01T12:57:49;20.40;99.00
3350;DHT22;1688;51.000;13.684;2022-09-01T13:00:25;20.40;98.90
3350;DHT22;1688;51.000;13.684;2022-09-01T13:08:02;20.40;98.20
3350;DHT22;1688;51.000;13.684;2022-09-01T13:10:34;20.40;97.00
3350;DHT22;1688;51.000;13.684;2022-09-01T13:13:03;20.50;97.30
3350;DHT22;1688;51.000;13.684;2022-09-01T13:15:29;20.50;95.10
3350;DHT22;1688;51.000;13.684;2022-09-01T13:17:56;20.40;94.70
3350;DHT22;1688;51.000;13.684;2022-09-01T13:20:21;20.40;94.70
3350;DHT22;1688;51.000;13.684;2022-09-01T13:22:47;20.30;93.40
3350;DHT22;1688;51.000;13.684;2022-09-01T13:25:18;20.30;92.80
3350;DHT22;1688;51.000;13.684;2022-09-01T13:27:45;20.60;93.50
3350;DHT22;1688;51.000;13.684;2022-09-01T13:30:15;21.00;91.80
3350;DHT22;1688;51.000;13.684;2022-09-01T13:32:42;21.20;92.60
3350;DHT22;1688;51.000;13.684;2022-09-01T13:35:10;21.60;92.40
3350;DHT22;1688;51.000;13.684;2022-09-01T13:37:36;22.10;90.90
3350;DHT22;1688;51.000;13.684;2022-09-01T13:40:03;22.30;90.20
3350;DHT22;1688;51.000;13.684;2022-09-01T13:42:31;22.30;86.50
3350;DHT22;1688;51.000;13.684;2022-09-01T13:44:57;22.60;85.70
3350;DHT22;1688;51.000;13.684;2022-09-01T13:47:22;22.60;85.60
3350;DHT22;1688;51.000;13.684;2022-09-01T13:49:49;22.40;86.90
3350;DHT22;1688;51.000;13.684;2022-09-01T13:52:14;22.30;87.00
3350;DHT22;1688;51.000;13.684;2022-09-01T13:54:40;22.20;86.80
3350;DHT22;1688;51.000;13.684;2022-09-01T13:57:09;21.90;90.60
3350;DHT22;1688;51.000;13.684;2022-09-01T13:59:38;21.30;93.60
3350;DHT22;1688;51.000;13.684;2022-09-01T14:02:04;21.00;94.90
3350;DHT22;1688;51.000;13.684;2022-09-01T14:04:30;20.80;95.50
3350;DHT22;1688;51.000;13.684;2022-09-01T14:06:56;20.60;95.90
3350;DHT22;1688;51.000;13.684;2022-09-01T14:09:24;20.60;95.80
3350;DHT22;1688;51.000;13.684;2022-09-01T14:11:54;20.40;95.50
3350;DHT22;1688;51.000;13.684;2022-09-01T14:14:20;20.20;95.30
3350;DHT22;1688;51.000;13.684;2022-09-01T14:16:46;20.20;95.70
3350;DHT22;1688;51.000;13.684;2022-09-01T14:19:12;20.20;95.40
3350;DHT22;1688;51.000;13.684;2022-09-01T14:21:38;20.20;94.80
3350;DHT22;1688;51.000;13.684;2022-09-01T14:24:04;20.10;93.80
3350;DHT22;1688;51.000;13.684;2022-09-01T14:26:30;20.00;93.10
3350;DHT22;1688;51.000;13.684;2022-09-01T14:28:56;20.00;92.60
3350;DHT22;1688;51.000;13.684;2022-09-01T14:31:22;20.00;92.70
3350;DHT22;1688;51.000;13.684;2022-09-01T14:33:48;20.10;92.80
3350;DHT22;1688;51.000;13.684;2022-09-01T14:36:21;20.20;93.80
3350;DHT22;1688;51.000;13.684;2022-09-01T14:38:49;20.20;93.20
3350;DHT22;1688;51.000;13.684;2022-09-01T14:41:16;20.00;92.90
3350;DHT22;1688;51.000;13.684;2022-09-01T14:43:45;20.10;93.30
3350;DHT22;1688;51.000;13.684;2022-09-01T14:46:11;20.00;93.70
3350;DHT22;1688;51.000;13.684;2022-09-01T14:48:39;19.90;92.90
3350;DHT22;1688;51.000;13.684;2022-09-01T14:51:06;19.80;92.00
3350;DHT22;1688;51.000;13.684;2022-09-01T14:53:33;19.80;91.90
3350;DHT22;1688;51.000;13.684;2022-09-01T14:56:00;19.70;91.20
3350;DHT22;1688;51.000;13.684;2022-09-01T14:58:28;19.70;91.60
3350;DHT22;1688;51.000;13.684;2022-09-01T15:00:54;19.80;91.60
3350;DHT22;1688;51.000;13.684;2022-09-01T15:03:25;19.70;91.70
3350;DHT22;1688;51.000;13.684;2022-09-01T15:05:52;19.70;92.10
3350;DHT22;1688;51.000;13.684;2022-09-01T15:08:18;19.70;92.10
3350;DHT22;1688;51.000;13.684;2022-09-01T15:10:44;19.80;91.10
3350;DHT22;1688;51.000;13.684;2022-09-01T15:13:10;19.80;91.90
3350;DHT22;1688;51.000;13.684;2022-09-01T15:15:37;19.80;91.30
3350;DHT22;1688;51.000;13.684;2022-09-01T15:18:03;19.70;92.60
3350;DHT22;1688;51.000;13.684;2022-09-01T15:20:29;19.70;93.20
3350;DHT22;1688;51.000;13.684;2022-09-01T15:23:18;19.80;93.10
3350;DHT22;1688;51.000;13.684;2022-09-01T15:25:46;19.70;93.50
3350;DHT22;1688;51.000;13.684;2022-09-01T15:28:12;19.70;93.20
3350;DHT22;1688;51.000;13.684;2022-09-01T15:30:39;19.60;93.60
3350;DHT22;1688;51.000;13.684;2022-09-01T15:33:07;19.60;94.00
3350;DHT22;1688;51.000;13.684;2022-09-01T15:35:33;19.60;94.60
3350;DHT22;1688;51.000;13.684;2022-09-01T15:37:59;19.60;95.20
3350;DHT22;1688;51.000;13.684;2022-09-01T15:40:29;19.70;95.90
3350;DHT22;1688;51.000;13.684;2022-09-01T15:42:56;19.70;96.00
3350;DHT22;1688;51.000;13.684;2022-09-01T15:45:23;19.70;96.50
3350;DHT22;1688;51.000;13.684;2022-09-01T15:47:49;19.70;96.40
3350;DHT22;1688;51.000;13.684;2022-09-01T15:50:21;19.60;96.40
3350;DHT22;1688;51.000;13.684;2022-09-01T15:52:58;19.50;96.90
3350;DHT22;1688;51.000;13.684;2022-09-01T15:55:36;19.50;96.70
3350;DHT22;1688;51.000;13.684;2022-09-01T15:58:03;19.40;97.20
3350;DHT22;1688;51.000;13.684;2022-09-01T16:00:29;19.30;97.50
3350;DHT22;1688;51.000;13.684;2022-09-01T16:02:55;19.20;97.80
3350;DHT22;1688;51.000;13.684;2022-09-01T16:05:23;19.20;98.50
3350;DHT22;1688;51.000;13.684;2022-09-01T16:07:51;19.20;98.60
3350;DHT22;1688;51.000;13.684;2022-09-01T16:10:17;19.20;98.70
3350;DHT22;1688;51.000;13.684;2022-09-01T16:12:44;19.20;99.40
3350;DHT22;1688;51.000;13.684;2022-09-01T16:15:13;19.30;99.40
3350;DHT22;1688;51.000;13.684;2022-09-01T16:20:13;19.10;99.80
3350;DHT22;1688;51.000;13.684;2022-09-01T16:25:29;19.10;99.90
3350;DHT22;1688;51.000;13.684;2022-09-01T16:27:57;19.00;99.80
3350;DHT22;1688;51.000;13.684;2022-09-01T16:30:27;19.00;99.70
3350;DHT22;1688;51.000;13.684;2022-09-01T16:32:56;19.00;99.80
3350;DHT22;1688;51.000;13.684;2022-09-01T16:35:34;19.00;99.70
3350;DHT22;1688;51.000;13.684;2022-09-01T16:38:11;19.10;99.80
3350;DHT22;1688;51.000;13.684;2022-09-01T16:41:07;19.10;99.60
3350;DHT22;1688;51.000;13.684;2022-09-01T16:44:03;19.10;99.10
3350;DHT22;1688;51.000;13.684;2022-09-01T16:49:40;19.00;99.20
3350;DHT22;1688;51.000;13.684;2022-09-01T16:52:25;19.00;99.10
3350;DHT22;1688;51.000;13.684;2022-09-01T16:57:45;18.90;99.10
3350;DHT22;1688;51.000;13.684;2022-09-01T17:00:14;18.90;99.30
3350;DHT22;1688;51.000;13.684;2022-09-01T17:05:31;18.80;99.70
3350;DHT22;1688;51.000;13.684;2022-09-01T17:13:40;18.70;99.50
3350;DHT22;1688;51.000;13.684;2022-09-01T17:18:54;18.60;99.60
3350;DHT22;1688;51.000;13.684;2022-09-01T17:21:26;18.70;99.40
3350;DHT22;1688;51.000;13.684;2022-09-01T17:24:05;18.80;99.40
3350;DHT22;1688;51.000;13.684;2022-09-01T17:26:38;18.90;99.00
3350;DHT22;1688;51.000;13.684;2022-09-01T17:35:10;19.30;99.30
3350;DHT22;1688;51.000;13.684;2022-09-01T17:38:00;19.30;99.00
3350;DHT22;1688;51.000;13.684;2022-09-01T17:43:33;19.40;98.70